Etusivu
METAR-TAF:

METAR-TAF

Lentoasemat :

Pointe-Noire, Kongo

Leveyspiiri: 04-49S, Pituuspiiri: 011-54E, korkeus merenpinnasta: 17 m

Tämänhetkinen sää

Tämä raportti tehtiin 59 minuuttia sitten, kello 09.00 UTC
Tuuli 11 kn etelästä
Lämpötila 26°C
Kosteus 84%
Ilmanpaine 1015 hPa
Näkyvyys 10 km tai enemmän
Hajanaisia pilviä 700 ft:n korkeudessa
Hajanaisia pilviä 1500 ft:n korkeudessa
Hajonneita pilviä 2600 ft:n korkeudessa

METAR: FCPP 220900Z 19011KT 9999 SCT007 SCT015 BKN026 26/23 Q1015 NOSIG

Aika: 10:59 (09:59 UTC)

Sääennuste

Tämä raportti tehtiin 4 tuntia ja 59 minuuttia sitten, kello 05.00 UTC
Ennuste voimassa 22. päivästä klo 06 UTC - 23. päivään klo 06 UTC
Tuuli 5 kn etelästä/lounaasta
Näkyvyys: 8000 m
Hajanaisia pilviä 2000 ft:n korkeudessa

TAF: FCPP 220500Z 2206/2306 20005KT 8000 SCT020

Säähavainnot ja -ennusteet yli 4000 lentoasemalta (METAR- ja TAF-raportit).

Käytössä olevat sääasemat on merkitty karttaan keltaisilla ja punaisilla pisteillä.

Aseta hiiri pisteen päälle nähdäksesi sääaseman nimen.

Klikkaa sitten nähdäksesi säähavainnot ja -ennusteet.

Kartan vaihtaminen: klikkaa mustalla rastilla varustettuja vihreitä pisteitä, niin voit zoomata sisään; viivalla varustettua vihreää pistettä, niin voit zoomata ulos tai vihreitä nuolia, niin pääset viereisille kartoille.


METAR-TAF: